Antioch, California
Current Conditions -  °F | °C
As of 7:53 AM on Saturday 25 Oct 2014 (Local Time) from KCCR Reporting Station
Overcast Overcast  
Wind Chill: 59°   Ceiling: 6000
Heat Index: 59°   Visibility: 10mi
Dew Point: 57°   Wind: 10mph
Humidity: 93%   Direction: 160°SSE
Pressure: 29.98"   Gusts: NA
Location:  38.02°N, 121.81°W
Report Text: KCCR 251453Z 16009KT 10SM SCT025 OVC060 15/14 A2998 RMK AO2 RAE11B45E52 SLP136 P0000 60013 T01500139 51011
Loading
Personal Weather Stations






























Interactive Weather Map New forecast layout! Learn more

10-Day Weather Forecast

Advertisements
Track Severe Weather on mobile